📊 Raw Sensor Data
Showing records 39201 to 39225 of 84,942 total
| ID | Distance (ft) | Battery V | Battery A | Int Temp (°F) | Int Humid (%) | Ext Temp (°F) | Solar V | RSSI | SNR | Time Stamp |
|---|---|---|---|---|---|---|---|---|---|---|
| 45754 | 15.3 | 3.93 | -5 | 59 | 46 | 59 | 0.00 | -67 | 8 | 07/08/2025 11:15 PM |
| 45753 | 15.3 | 3.87 | -5 | 59 | 46 | 60 | 0.00 | -69 | 8 | 07/08/2025 11:00 PM |
| 45752 | 15.3 | 3.87 | -5 | 60 | 47 | 61 | 0.00 | -66 | 8 | 07/08/2025 10:45 PM |
| 45751 | 15.3 | 3.88 | -5 | 61 | 47 | 61 | 0.00 | -68 | 8 | 07/08/2025 10:30 PM |
| 45750 | 15.3 | 3.88 | -5 | 61 | 48 | 62 | 0.10 | -66 | 8 | 07/08/2025 10:15 PM |
| 45749 | 15.3 | 3.88 | -5 | 62 | 49 | 63 | 0.00 | -68 | 8 | 07/08/2025 10:00 PM |
| 45748 | 15.3 | 3.88 | -5 | 63 | 49 | 63 | 0.00 | -68 | 8 | 07/08/2025 09:45 PM |
| 45747 | 15.3 | 3.93 | -5 | 64 | 51 | 64 | 0.10 | -69 | 8 | 07/08/2025 09:30 PM |
| 45746 | 15.3 | 3.88 | -5 | 66 | 52 | 65 | 0.00 | -68 | 8 | 07/08/2025 09:15 PM |
| 45745 | 15.3 | 3.88 | -5 | 67 | 53 | 66 | 0.00 | -69 | 8 | 07/08/2025 09:00 PM |
| 45744 | 15.3 | 3.94 | -5 | 70 | 55 | 67 | 0.60 | -68 | 7 | 07/08/2025 08:45 PM |
| 45743 | 15.4 | 3.93 | -10 | 74 | 55 | 69 | 3.20 | -68 | 8 | 07/08/2025 08:30 PM |
| 45742 | 15.5 | 3.89 | 0 | 79 | 54 | 73 | 4.50 | -66 | 8 | 07/08/2025 08:15 PM |
| 45741 | 15.5 | 3.96 | 0 | 83 | 52 | 77 | 4.50 | -69 | 7 | 07/08/2025 08:00 PM |
| 45740 | 15.5 | 3.96 | 6 | 87 | 51 | 79 | 4.50 | -67 | 8 | 07/08/2025 07:45 PM |
| 45739 | 15.5 | 3.97 | 9 | 89 | 51 | 82 | 4.60 | -69 | 7 | 07/08/2025 07:30 PM |
| 45738 | 15.5 | 3.97 | 0 | 90 | 50 | 83 | 4.50 | -67 | 8 | 07/08/2025 07:15 PM |
| 45737 | 15.6 | 4.01 | 9 | 92 | 49 | 85 | 4.50 | -69 | 8 | 07/08/2025 07:00 PM |
| 45736 | 15.5 | 3.99 | 45 | 92 | 49 | 83 | 4.50 | -67 | 7 | 07/08/2025 06:45 PM |
| 45735 | 15.5 | 3.92 | 8 | 92 | 49 | 83 | 5.10 | -67 | 8 | 07/08/2025 06:30 PM |
| 45734 | 15.5 | 3.92 | 0 | 93 | 48 | 83 | 5.10 | -68 | 8 | 07/08/2025 06:15 PM |
| 45733 | 15.6 | 3.92 | 8 | 93 | 48 | 84 | 5.10 | -70 | 8 | 07/08/2025 06:00 PM |
| 45732 | 15.5 | 3.92 | 8 | 94 | 48 | 83 | 5.10 | -69 | 8 | 07/08/2025 05:45 PM |
| 45731 | 15.5 | 4.00 | 8 | 95 | 48 | 83 | 5.10 | -68 | 8 | 07/08/2025 05:30 PM |
| 45730 | 15.5 | 3.92 | 8 | 96 | 47 | 86 | 5.10 | -67 | 8 | 07/08/2025 05:15 PM |